createdAt,value
2018-12-14T00:00:51.665Z,0
2018-12-14T00:02:01.419Z,0
2018-12-14T00:03:11.168Z,0
2018-12-14T00:04:20.667Z,0
2018-12-14T00:05:30.663Z,0
2018-12-14T00:06:40.428Z,0
2018-12-14T00:07:50.183Z,0
2018-12-14T00:09:00.325Z,0
2018-12-14T00:10:10.446Z,0
2018-12-14T00:11:20.193Z,0
2018-12-14T00:12:30.196Z,0
2018-12-14T00:13:40.190Z,0
2018-12-14T00:14:50.178Z,0
2018-12-14T00:16:02.403Z,0
2018-12-14T00:17:12.428Z,0
2018-12-14T00:18:22.404Z,0
2018-12-14T00:19:32.501Z,0
2018-12-14T00:20:42.309Z,0
2018-12-14T00:21:51.804Z,0
2018-12-14T00:23:01.792Z,0
2018-12-14T00:24:11.788Z,0
2018-12-14T00:25:21.740Z,0
2018-12-14T00:26:31.493Z,0
2018-12-14T00:27:41.532Z,0
2018-12-14T00:28:51.520Z,0
2018-12-14T00:30:02.365Z,0
2018-12-14T00:31:12.376Z,0
2018-12-14T00:32:22.406Z,0
2018-12-14T00:33:32.497Z,0
2018-12-14T00:34:42.234Z,0
2018-12-14T00:35:52.236Z,0
2018-12-14T00:37:03.142Z,0
2018-12-14T00:38:13.149Z,0
2018-12-14T00:39:22.949Z,0
2018-12-14T00:40:32.957Z,0
2018-12-14T00:41:42.723Z,0
2018-12-14T00:42:52.737Z,0
2018-12-14T00:44:05.602Z,0
2018-12-14T00:45:15.610Z,0
2018-12-14T00:46:25.597Z,0
2018-12-14T00:47:35.599Z,0
2018-12-14T00:48:45.340Z,0
2018-12-14T00:49:55.351Z,0
2018-12-14T00:51:05.491Z,0
2018-12-14T00:52:15.008Z,0
2018-12-14T00:53:24.487Z,0
2018-12-14T00:54:34.515Z,0
2018-12-14T00:55:44.265Z,0
2018-12-14T00:56:54.309Z,0
2018-12-14T00:58:04.311Z,0
2018-12-14T00:59:14.049Z,0
2018-12-14T01:00:24.058Z,0
2018-12-14T01:01:33.571Z,0
2018-12-14T01:02:43.715Z,0
2018-12-14T01:03:57.029Z,0
2018-12-14T01:05:07.654Z,0
2018-12-14T01:06:18.706Z,0
2018-12-14T01:07:28.767Z,0
2018-12-14T01:08:38.527Z,0
2018-12-14T01:09:48.522Z,0
2018-12-14T01:10:58.539Z,0
2018-12-14T01:12:08.559Z,0
2018-12-14T01:13:18.574Z,0
2018-12-14T01:14:28.563Z,0
2018-12-14T01:15:38.564Z,0
2018-12-14T01:16:49.215Z,0
2018-12-14T01:17:59.260Z,0
2018-12-14T01:19:09.780Z,0
2018-12-14T01:20:20.016Z,0
2018-12-14T01:21:29.789Z,0
2018-12-14T01:22:39.783Z,0
2018-12-14T01:23:49.796Z,0
2018-12-14T01:25:00.082Z,0
2018-12-14T01:26:12.687Z,0
2018-12-14T01:27:22.436Z,0
2018-12-14T01:28:32.166Z,0
2018-12-14T01:29:42.170Z,0
2018-12-14T01:30:52.144Z,0
2018-12-14T01:32:02.189Z,0
2018-12-14T01:33:11.944Z,0
2018-12-14T01:34:21.938Z,0
2018-12-14T01:35:31.918Z,0
2018-12-14T01:36:41.668Z,0
2018-12-14T01:37:51.678Z,0
2018-12-14T01:39:01.722Z,0
2018-12-14T01:40:11.464Z,0
2018-12-14T01:41:21.458Z,0
2018-12-14T01:42:31.444Z,0
2018-12-14T01:43:40.988Z,0
2018-12-14T01:44:50.992Z,0
2018-12-14T01:46:02.461Z,0
2018-12-14T01:47:12.306Z,0
2018-12-14T01:48:23.298Z,0
2018-12-14T01:49:33.336Z,0
2018-12-14T01:50:45.209Z,0
2018-12-14T01:51:55.635Z,0
2018-12-14T01:53:05.626Z,0
2018-12-14T01:54:15.622Z,0
2018-12-14T01:55:25.673Z,0
2018-12-14T01:56:35.667Z,0
2018-12-14T01:57:45.927Z,0
2018-12-14T01:58:55.696Z,0
2018-12-14T02:00:05.446Z,0
2018-12-14T02:01:15.184Z,0
2018-12-14T02:02:25.179Z,0
2018-12-14T02:03:35.290Z,0
2018-12-14T02:04:45.351Z,0
2018-12-14T02:05:55.394Z,0
2018-12-14T02:07:05.172Z,0
2018-12-14T02:08:14.968Z,0
2018-12-14T02:09:24.787Z,0
2018-12-14T02:10:34.850Z,0
2018-12-14T02:11:44.923Z,0
2018-12-14T02:12:55.034Z,0
2018-12-14T02:14:05.107Z,0
2018-12-14T02:15:15.174Z,0
2018-12-14T02:16:25.226Z,0
2018-12-14T02:17:35.022Z,0
2018-12-14T02:18:45.068Z,0
2018-12-14T02:19:54.875Z,0
2018-12-14T02:21:05.096Z,0
2018-12-14T02:22:15.149Z,0
2018-12-14T02:23:25.211Z,0
2018-12-14T02:24:35.321Z,0
2018-12-14T02:25:44.601Z,0
2018-12-14T02:26:54.694Z,0
2018-12-14T02:28:04.761Z,0
2018-12-14T02:29:14.793Z,0
2018-12-14T02:30:24.952Z,0
2018-12-14T02:31:35.029Z,0
2018-12-14T02:32:45.105Z,0
2018-12-14T02:33:55.165Z,0
2018-12-14T02:35:05.235Z,0
2018-12-14T02:36:15.329Z,0
2018-12-14T02:37:25.388Z,0
2018-12-14T02:38:35.176Z,0
2018-12-14T02:39:44.987Z,0
2018-12-14T02:40:55.078Z,0
2018-12-14T02:42:05.152Z,0
2018-12-14T02:43:15.208Z,0
2018-12-14T02:44:25.418Z,0
2018-12-14T02:45:35.592Z,0
2018-12-14T02:46:48.865Z,0
2018-12-14T02:47:59.041Z,0
2018-12-14T02:49:10.167Z,0
2018-12-14T02:50:20.224Z,0
2018-12-14T02:51:30.028Z,0
2018-12-14T02:52:39.821Z,0
2018-12-14T02:53:49.879Z,0
2018-12-14T02:54:59.946Z,0
2018-12-14T02:56:10.000Z,0
2018-12-14T02:57:20.069Z,0
2018-12-14T02:58:30.127Z,0
2018-12-14T02:59:40.240Z,0
2018-12-14T03:00:50.310Z,0
2018-12-14T03:01:59.868Z,0
2018-12-14T03:03:09.662Z,0
2018-12-14T03:35:17.853Z,0
2018-12-14T03:36:28.135Z,0
2018-12-14T03:45:38.306Z,0
2018-12-14T03:46:48.357Z,0
2018-12-14T03:47:58.173Z,0
2018-12-14T03:49:08.231Z,0
2018-12-14T03:50:18.036Z,0
2018-12-14T03:51:27.886Z,0
2018-12-14T03:52:37.970Z,0
2018-12-14T03:53:48.021Z,0
2018-12-14T03:54:57.824Z,0
2018-12-14T03:56:07.888Z,0
2018-12-14T03:57:17.996Z,0
2018-12-14T03:58:28.116Z,0
2018-12-14T03:59:38.175Z,0
2018-12-14T04:00:48.251Z,0
2018-12-14T04:01:58.056Z,0
2018-12-14T04:03:08.206Z,0
2018-12-14T04:04:18.255Z,0
2018-12-14T04:05:28.063Z,0
2018-12-14T04:06:38.141Z,0
2018-12-14T04:07:48.188Z,0
2018-12-14T04:08:58.287Z,0
2018-12-14T04:10:08.337Z,0
2018-12-14T04:11:18.444Z,0
2018-12-14T04:12:27.987Z,0
2018-12-14T04:13:37.796Z,0
2018-12-14T04:14:47.842Z,0
2018-12-14T04:15:57.910Z,0
2018-12-14T04:17:07.971Z,0
2018-12-14T04:18:18.069Z,0
2018-12-14T04:19:27.990Z,0
2018-12-14T04:20:38.106Z,0
2018-12-14T04:21:48.653Z,0
2018-12-14T04:22:58.739Z,0
2018-12-14T04:24:08.802Z,0
2018-12-14T04:25:18.905Z,0
2018-12-14T04:26:29.031Z,0
2018-12-14T04:27:39.094Z,0
2018-12-14T04:28:49.169Z,0
2018-12-14T04:29:59.237Z,0
2018-12-14T04:31:09.304Z,0
2018-12-14T04:32:19.343Z,0
2018-12-14T04:33:29.408Z,0
2018-12-14T04:34:39.483Z,0
2018-12-14T04:35:49.544Z,0
2018-12-14T04:36:59.619Z,0
2018-12-14T04:38:12.540Z,0
2018-12-14T04:39:22.612Z,0
2018-12-14T04:40:32.723Z,0
2018-12-14T04:41:42.272Z,0
2018-12-14T04:42:58.584Z,0
2018-12-14T04:44:08.416Z,0
2018-12-14T04:45:18.489Z,0
2018-12-14T04:46:28.672Z,0
2018-12-14T04:47:38.525Z,0
2018-12-14T04:48:48.589Z,0
2018-12-14T04:49:58.703Z,0
2018-12-14T04:51:08.497Z,0
2018-12-14T04:52:18.587Z,0
2018-12-14T04:53:28.455Z,0
2018-12-14T04:54:38.267Z,0
2018-12-14T04:55:48.114Z,0
2018-12-14T04:56:58.220Z,0
2018-12-14T04:58:09.518Z,0
2018-12-14T04:59:19.579Z,0
2018-12-14T05:00:29.745Z,0
2018-12-14T05:01:39.663Z,0
2018-12-14T05:02:49.719Z,0
2018-12-14T05:03:59.524Z,0
2018-12-14T05:05:09.334Z,0
2018-12-14T05:06:19.383Z,0
2018-12-14T05:07:29.185Z,0
2018-12-14T05:08:39.343Z,0
2018-12-14T05:09:49.398Z,0
2018-12-14T05:10:59.454Z,0
2018-12-14T05:12:09.492Z,0
2018-12-14T05:13:19.549Z,0
2018-12-14T05:14:29.650Z,0
2018-12-14T05:15:39.517Z,0
2018-12-14T05:16:50.238Z,0
2018-12-14T05:18:01.417Z,0
2018-12-14T05:19:11.214Z,0
2018-12-14T05:20:21.017Z,0
2018-12-14T05:21:31.081Z,0
2018-12-14T05:22:40.608Z,0
2018-12-14T05:23:50.413Z,0
2018-12-14T05:25:03.170Z,0
2018-12-14T05:26:13.038Z,0
2018-12-14T05:27:23.099Z,0
2018-12-14T05:28:33.142Z,0
2018-12-14T05:29:43.178Z,0
2018-12-14T05:30:53.242Z,0
2018-12-14T05:32:03.491Z,0
2018-12-14T05:33:13.626Z,0
2018-12-14T05:34:23.749Z,0
2018-12-14T05:35:33.786Z,0
2018-12-14T05:36:43.849Z,0
2018-12-14T05:37:53.673Z,0
2018-12-14T05:39:03.211Z,0
2018-12-14T05:40:13.270Z,0
2018-12-14T05:41:23.456Z,0
2018-12-14T05:42:33.492Z,0
2018-12-14T05:43:43.364Z,0
2018-12-14T05:44:53.869Z,0
2018-12-14T05:46:03.913Z,0
2018-12-14T05:47:13.946Z,0
2018-12-14T05:48:23.990Z,0
2018-12-14T05:49:34.061Z,0
2018-12-14T05:50:43.866Z,0
2018-12-14T05:51:53.674Z,0
2018-12-14T05:53:03.488Z,0
2018-12-14T05:54:13.541Z,0
2018-12-14T05:55:23.596Z,0
2018-12-14T05:56:33.406Z,0
2018-12-14T05:57:43.464Z,0
2018-12-14T05:58:53.531Z,0
2018-12-14T06:00:05.646Z,0
2018-12-14T06:01:15.746Z,0
2018-12-14T06:02:25.801Z,0
2018-12-14T06:03:35.342Z,0
2018-12-14T06:04:45.400Z,0
2018-12-14T06:05:55.446Z,0
2018-12-14T06:07:05.329Z,0
2018-12-14T06:08:15.158Z,0
2018-12-14T06:09:25.246Z,0
2018-12-14T06:10:35.308Z,0
2018-12-14T06:11:45.116Z,0
2018-12-14T06:12:55.982Z,0
2018-12-14T06:14:05.809Z,0
2018-12-14T06:15:15.866Z,0
2018-12-14T06:16:25.713Z,0
2018-12-14T06:17:35.521Z,0
2018-12-14T06:18:45.562Z,0
2018-12-14T06:19:55.498Z,0
2018-12-14T06:21:06.129Z,0
2018-12-14T06:22:16.180Z,0
2018-12-14T06:23:26.358Z,0
2018-12-14T06:24:36.199Z,0
2018-12-14T06:25:46.266Z,0
2018-12-14T06:26:56.554Z,0
2018-12-14T06:28:06.595Z,0
2018-12-14T06:29:16.399Z,0
2018-12-14T06:30:26.466Z,0
2018-12-14T06:31:36.535Z,0
2018-12-14T06:32:46.360Z,0
2018-12-14T06:33:56.409Z,0
2018-12-14T06:35:06.465Z,0
2018-12-14T06:36:16.593Z,0
2018-12-14T06:37:26.995Z,0
2018-12-14T06:38:37.136Z,0
2018-12-14T06:39:47.251Z,0
2018-12-14T06:40:58.221Z,0
2018-12-14T06:42:08.104Z,0
2018-12-14T06:43:22.819Z,0
2018-12-14T06:44:32.878Z,0
2018-12-14T06:45:42.946Z,0
2018-12-14T06:46:52.737Z,0
2018-12-14T06:48:05.468Z,0
2018-12-14T06:49:15.573Z,0
2018-12-14T06:50:25.717Z,0
2018-12-14T06:51:35.773Z,0
2018-12-14T06:52:45.842Z,0
2018-12-14T06:53:55.907Z,0
2018-12-14T06:55:06.195Z,0
2018-12-14T06:56:16.309Z,0
2018-12-14T06:57:27.368Z,0
2018-12-14T06:58:37.424Z,0
2018-12-14T06:59:47.485Z,5
2018-12-14T07:00:57.004Z,5
2018-12-14T07:02:06.804Z,5
2018-12-14T07:03:17.520Z,5
2018-12-14T07:04:27.551Z,5
2018-12-14T07:05:37.964Z,5
2018-12-14T07:06:47.835Z,5
2018-12-14T07:07:57.633Z,5
2018-12-14T07:09:10.157Z,5
2018-12-14T07:10:20.214Z,5
2018-12-14T07:11:30.280Z,5
2018-12-14T07:12:40.761Z,5
2018-12-14T07:13:50.955Z,5
2018-12-14T07:15:01.611Z,5
2018-12-14T07:16:11.842Z,5
2018-12-14T07:17:21.911Z,5
2018-12-14T07:18:31.977Z,10
2018-12-14T07:19:42.039Z,10
2018-12-14T07:20:51.847Z,10
2018-12-14T07:22:01.971Z,10
2018-12-14T07:23:12.059Z,10
2018-12-14T07:24:22.125Z,10
2018-12-14T07:25:32.036Z,10
2018-12-14T07:26:42.106Z,15
2018-12-14T07:27:52.160Z,15
2018-12-14T07:29:02.243Z,15
2018-12-14T07:30:12.397Z,15
2018-12-14T07:31:22.455Z,15
2018-12-14T07:32:32.511Z,15
2018-12-14T07:33:42.572Z,15
2018-12-14T07:34:52.619Z,15
2018-12-14T07:36:02.709Z,15
2018-12-14T07:37:12.769Z,15
2018-12-14T07:38:23.058Z,15
2018-12-14T07:39:32.843Z,15
2018-12-14T07:40:43.170Z,15
2018-12-14T07:41:53.014Z,15
2018-12-14T07:43:02.816Z,15
2018-12-14T07:44:12.875Z,15
2018-12-14T07:45:22.944Z,15
2018-12-14T07:46:33.019Z,15
2018-12-14T07:47:43.102Z,15
2018-12-14T07:48:53.182Z,15
2018-12-14T07:50:05.961Z,15
2018-12-14T07:51:16.038Z,15
2018-12-14T07:52:26.094Z,15
2018-12-14T07:53:36.214Z,15
2018-12-14T07:54:46.024Z,15
2018-12-14T07:55:56.057Z,15
2018-12-14T07:57:07.266Z,15
2018-12-14T07:58:17.331Z,15
2018-12-14T07:59:27.396Z,15
2018-12-14T08:00:37.480Z,15
2018-12-14T08:01:47.686Z,15
2018-12-14T08:02:57.765Z,15
2018-12-14T08:04:07.828Z,15
2018-12-14T08:05:17.892Z,15
2018-12-14T08:06:28.185Z,15
2018-12-14T08:07:38.401Z,15
2018-12-14T08:08:48.268Z,15
2018-12-14T08:09:58.422Z,15
2018-12-14T08:11:08.722Z,15
2018-12-14T08:12:18.784Z,20
2018-12-14T08:13:34.637Z,20
2018-12-14T08:14:44.802Z,20
2018-12-14T08:15:54.918Z,20
2018-12-14T08:17:05.227Z,25
2018-12-14T08:18:15.368Z,25
2018-12-14T08:19:25.431Z,25
2018-12-14T08:20:35.736Z,25
2018-12-14T08:21:45.781Z,25
2018-12-14T08:22:55.844Z,25
2018-12-14T08:24:05.907Z,30
2018-12-14T08:25:15.965Z,30
2018-12-14T08:26:26.013Z,35
2018-12-14T08:27:35.821Z,35
2018-12-14T08:28:45.882Z,35
2018-12-14T08:29:56.759Z,35
2018-12-14T08:31:06.823Z,35
2018-12-14T08:32:16.637Z,35
2018-12-14T08:33:26.684Z,35
2018-12-14T08:34:36.732Z,35
2018-12-14T08:35:46.564Z,30
2018-12-14T08:36:56.607Z,30
2018-12-14T08:38:07.424Z,25
2018-12-14T08:39:17.500Z,25
2018-12-14T08:40:27.573Z,25
2018-12-14T08:41:37.999Z,25
2018-12-14T08:42:47.988Z,25
2018-12-14T08:43:58.006Z,25
2018-12-14T08:45:08.598Z,30
2018-12-14T08:46:18.647Z,30
2018-12-14T08:47:28.622Z,30
2018-12-14T08:48:38.419Z,30
2018-12-14T08:49:48.762Z,30
2018-12-14T08:50:58.822Z,30
2018-12-14T08:52:08.896Z,30
2018-12-14T08:53:18.956Z,30
2018-12-14T08:54:28.776Z,30
2018-12-14T08:55:38.863Z,30
2018-12-14T08:56:48.918Z,30
2018-12-14T08:57:58.979Z,30
2018-12-14T08:59:10.512Z,30
2018-12-14T09:00:20.575Z,25
2018-12-14T09:01:30.630Z,25
2018-12-14T09:02:40.672Z,20
2018-12-14T09:03:50.744Z,20
2018-12-14T09:05:00.794Z,20
2018-12-14T09:06:10.609Z,20
2018-12-14T09:07:26.689Z,20
2018-12-14T09:08:36.816Z,20
2018-12-14T09:09:46.344Z,20
2018-12-14T09:10:55.896Z,20
2018-12-14T09:12:05.962Z,20
2018-12-14T09:13:16.031Z,20
2018-12-14T09:14:26.082Z,25
2018-12-14T09:15:35.874Z,25
2018-12-14T09:16:45.665Z,25
2018-12-14T09:17:55.463Z,25
2018-12-14T09:19:05.573Z,25
2018-12-14T09:20:15.641Z,30
2018-12-14T09:21:25.441Z,30
2018-12-14T09:22:35.273Z,35
2018-12-14T09:23:45.344Z,35
2018-12-14T09:24:55.216Z,40
2018-12-14T09:26:06.138Z,40
2018-12-14T09:27:15.946Z,45
2018-12-14T09:28:25.746Z,45
2018-12-14T09:29:35.544Z,45
2018-12-14T09:30:52.119Z,40
2018-12-14T09:32:02.196Z,40
2018-12-14T09:33:12.320Z,45
2018-12-14T09:34:22.375Z,40
2018-12-14T09:35:32.431Z,45
2018-12-14T09:36:42.527Z,45
2018-12-14T09:37:52.335Z,45
2018-12-14T09:39:03.273Z,45
2018-12-14T09:40:13.329Z,40
2018-12-14T09:41:25.790Z,40
2018-12-14T09:42:35.904Z,40
2018-12-14T09:43:45.963Z,40
2018-12-14T09:44:55.750Z,40
2018-12-14T09:46:05.819Z,35
2018-12-14T09:47:15.869Z,35
2018-12-14T09:48:26.029Z,30
2018-12-14T09:49:36.094Z,35
2018-12-14T09:50:46.136Z,35
2018-12-14T09:51:55.929Z,40
2018-12-14T09:53:05.834Z,40
2018-12-14T09:54:15.951Z,40
2018-12-14T09:55:25.997Z,40
2018-12-14T09:56:35.864Z,40
2018-12-14T09:57:45.919Z,40
2018-12-14T09:58:55.996Z,35
2018-12-14T10:00:07.947Z,30
2018-12-14T10:01:19.305Z,30
2018-12-14T10:02:29.087Z,25
2018-12-14T10:03:39.095Z,30
2018-12-14T10:04:50.911Z,30
2018-12-14T10:06:02.644Z,35
2018-12-14T10:07:12.552Z,35
2018-12-14T10:08:23.889Z,35
2018-12-14T10:09:33.447Z,35
2018-12-14T10:10:43.740Z,35
2018-12-14T10:12:00.057Z,30
2018-12-14T10:13:10.309Z,30
2018-12-14T10:14:20.583Z,25
2018-12-14T10:15:31.051Z,25
2018-12-14T10:16:41.346Z,25
2018-12-14T10:17:51.355Z,25
2018-12-14T10:19:01.393Z,25
2018-12-14T10:20:11.697Z,25
2018-12-14T10:21:22.007Z,30
2018-12-14T10:22:32.562Z,30
2018-12-14T10:23:42.880Z,30
2018-12-14T10:24:53.415Z,30
2018-12-14T10:26:03.214Z,30
2018-12-14T10:27:13.256Z,30
2018-12-14T10:28:23.335Z,30
2018-12-14T10:29:33.649Z,30
2018-12-14T10:30:44.136Z,30
2018-12-14T10:31:54.221Z,35
2018-12-14T10:33:04.990Z,35
2018-12-14T10:34:15.157Z,40
2018-12-14T10:35:25.755Z,40
2018-12-14T10:36:36.503Z,40
2018-12-14T10:37:46.558Z,40
2018-12-14T10:38:56.649Z,35
2018-12-14T10:40:06.717Z,35
2018-12-14T10:41:17.060Z,35
2018-12-14T10:42:27.387Z,35
2018-12-14T10:43:37.702Z,40
2018-12-14T10:44:47.711Z,40
2018-12-14T10:45:57.798Z,40
2018-12-14T10:47:08.088Z,40
2018-12-14T10:48:18.454Z,40
2018-12-14T10:49:28.612Z,40
2018-12-14T10:50:49.108Z,40
2018-12-14T10:51:59.404Z,40
2018-12-14T10:53:09.563Z,40
2018-12-14T10:54:19.579Z,40
2018-12-14T10:55:29.880Z,40
2018-12-14T10:56:40.378Z,40
2018-12-14T10:57:50.718Z,40
2018-12-14T10:59:03.185Z,35
2018-12-14T11:00:13.666Z,35
2018-12-14T11:01:24.342Z,40
2018-12-14T11:02:34.631Z,40
2018-12-14T11:03:45.117Z,40
2018-12-14T11:04:56.692Z,35
2018-12-14T11:06:07.237Z,30
2018-12-14T11:07:17.790Z,30
2018-12-14T11:08:27.837Z,30
2018-12-14T11:09:38.333Z,30
2018-12-14T11:10:48.885Z,30
2018-12-14T11:11:58.973Z,30
2018-12-14T11:13:09.315Z,30
2018-12-14T11:14:23.951Z,30
2018-12-14T11:15:35.439Z,35
2018-12-14T11:16:46.989Z,35
2018-12-14T11:17:57.298Z,35
2018-12-14T11:19:07.576Z,35
2018-12-14T11:20:17.884Z,30
2018-12-14T11:21:27.944Z,30
2018-12-14T11:22:38.242Z,25
2018-12-14T11:23:48.546Z,25
2018-12-14T11:24:58.909Z,30
2018-12-14T11:26:09.199Z,30
2018-12-14T11:27:19.523Z,30
2018-12-14T11:28:29.330Z,25
2018-12-14T11:29:39.986Z,30
2018-12-14T11:30:50.118Z,30
2018-12-14T11:32:01.187Z,30
2018-12-14T11:33:11.304Z,25
2018-12-14T11:34:21.147Z,25
2018-12-14T11:35:31.222Z,25
2018-12-14T11:36:41.288Z,25
2018-12-14T11:37:51.353Z,25
2018-12-14T11:39:01.479Z,25
2018-12-14T11:40:11.552Z,25
2018-12-14T11:41:27.813Z,25
2018-12-14T11:42:37.947Z,25
2018-12-14T11:43:48.005Z,25
2018-12-14T11:44:58.088Z,25
2018-12-14T11:46:08.158Z,30
2018-12-14T11:47:23.055Z,35
2018-12-14T11:48:33.126Z,35
2018-12-14T11:49:43.245Z,40
2018-12-14T11:50:53.325Z,40
2018-12-14T11:52:03.789Z,40
2018-12-14T11:53:13.645Z,45
2018-12-14T11:54:24.802Z,45
2018-12-14T11:55:34.856Z,45
2018-12-14T11:56:44.916Z,45
2018-12-14T11:57:54.733Z,45
2018-12-14T11:59:04.811Z,45
2018-12-14T12:00:14.617Z,45
2018-12-14T12:01:24.685Z,45
2018-12-14T12:02:34.780Z,45
2018-12-14T12:03:50.075Z,45
2018-12-14T12:05:00.128Z,45
2018-12-14T12:06:11.032Z,45
2018-12-14T12:07:21.100Z,45
2018-12-14T12:08:31.182Z,45
2018-12-14T12:09:41.247Z,50
2018-12-14T12:10:51.345Z,50
2018-12-14T12:12:01.728Z,45
2018-12-14T12:13:11.809Z,45
2018-12-14T12:14:26.875Z,45
2018-12-14T12:15:37.113Z,45
2018-12-14T12:16:47.176Z,50
2018-12-14T12:17:59.294Z,50
2018-12-14T12:19:10.363Z,50
2018-12-14T12:20:20.171Z,50
2018-12-14T12:21:30.232Z,50
2018-12-14T12:22:40.301Z,50
2018-12-14T12:23:55.165Z,45
2018-12-14T12:25:07.981Z,50
2018-12-14T12:26:18.068Z,50
2018-12-14T12:27:28.197Z,50
2018-12-14T12:28:38.514Z,50
2018-12-14T12:29:48.623Z,55
2018-12-14T12:30:58.706Z,55
2018-12-14T12:32:09.466Z,50
2018-12-14T12:33:21.756Z,45
2018-12-14T12:34:32.581Z,40
2018-12-14T12:35:42.874Z,40
2018-12-14T12:36:52.988Z,40
2018-12-14T12:38:03.069Z,40
2018-12-14T12:39:13.138Z,40
2018-12-14T12:40:23.215Z,40
2018-12-14T12:41:33.756Z,40
2018-12-14T12:42:43.355Z,40
2018-12-14T12:43:53.412Z,40
2018-12-14T12:45:03.671Z,40
2018-12-14T12:46:13.742Z,40
2018-12-14T12:47:23.862Z,40
2018-12-14T12:48:33.641Z,45
2018-12-14T12:49:43.719Z,50
2018-12-14T12:50:53.529Z,55
2018-12-14T12:52:03.622Z,60
2018-12-14T12:53:13.442Z,65
2018-12-14T12:54:23.504Z,70
2018-12-14T12:55:33.318Z,65
2018-12-14T12:56:43.570Z,65
2018-12-14T12:57:53.389Z,70
2018-12-14T12:59:04.220Z,70
2018-12-14T13:00:14.290Z,70
2018-12-14T13:01:24.571Z,70
2018-12-14T13:02:34.652Z,70
2018-12-14T13:03:44.727Z,70
2018-12-14T13:04:54.836Z,65
2018-12-14T13:06:04.928Z,65
2018-12-14T13:07:15.058Z,60
2018-12-14T13:08:24.800Z,60
2018-12-14T13:09:34.924Z,55
2018-12-14T13:10:45.052Z,55
2018-12-14T13:11:55.095Z,55
2018-12-14T13:13:04.915Z,50
2018-12-14T13:14:14.991Z,50
2018-12-14T13:15:25.088Z,45
2018-12-14T13:16:34.640Z,45
2018-12-14T13:17:44.447Z,40
2018-12-14T13:18:54.259Z,40
2018-12-14T13:20:04.320Z,35
2018-12-14T13:21:14.410Z,35
2018-12-14T13:22:24.583Z,35
2018-12-14T13:23:34.432Z,30
2018-12-14T13:24:44.523Z,30
2018-12-14T13:25:54.314Z,30
2018-12-14T13:27:04.133Z,30
2018-12-14T13:28:13.984Z,30
2018-12-14T13:29:24.059Z,25
2018-12-14T13:30:34.233Z,25
2018-12-14T13:31:44.690Z,30
2018-12-14T13:32:55.050Z,25
2018-12-14T13:34:05.384Z,25
2018-12-14T13:35:15.460Z,25
2018-12-14T13:36:25.551Z,25
2018-12-14T13:37:35.647Z,25
2018-12-14T13:38:45.738Z,25
2018-12-14T13:39:55.984Z,25
2018-12-14T13:41:06.171Z,20
2018-12-14T13:42:16.311Z,20
2018-12-14T13:43:26.316Z,20
2018-12-14T13:44:36.491Z,20
2018-12-14T13:45:46.689Z,15
2018-12-14T13:46:57.402Z,15
2018-12-14T13:48:10.449Z,15
2018-12-14T13:49:20.549Z,15
2018-12-14T13:50:30.723Z,15
2018-12-14T13:51:41.038Z,15
2018-12-14T13:52:51.295Z,15
2018-12-14T13:54:02.413Z,15
2018-12-14T13:55:12.310Z,15
2018-12-14T13:56:22.176Z,15
2018-12-14T13:57:32.148Z,15
2018-12-14T13:58:42.350Z,15
2018-12-14T13:59:51.942Z,15
2018-12-14T14:01:02.012Z,15
2018-12-14T14:02:12.106Z,15
2018-12-14T14:03:21.927Z,15
2018-12-14T14:04:31.985Z,15
2018-12-14T14:05:42.060Z,15
2018-12-14T14:06:52.130Z,15
2018-12-14T14:08:02.172Z,15
2018-12-14T14:09:12.479Z,15
2018-12-14T14:10:22.577Z,20
2018-12-14T14:11:32.732Z,20
2018-12-14T14:12:42.813Z,20
2018-12-14T14:13:52.891Z,15
2018-12-14T14:15:02.990Z,15
2018-12-14T14:16:13.315Z,15
2018-12-14T14:17:23.126Z,15
2018-12-14T14:18:33.242Z,10
2018-12-14T14:19:43.299Z,10
2018-12-14T14:20:53.359Z,10
2018-12-14T14:22:03.182Z,10
2018-12-14T14:23:12.468Z,10
2018-12-14T14:24:22.518Z,10
2018-12-14T14:25:32.602Z,10
2018-12-14T14:26:49.309Z,10
2018-12-14T14:27:59.392Z,10
2018-12-14T14:29:10.507Z,10
2018-12-14T14:30:20.813Z,10
2018-12-14T14:31:30.897Z,5
2018-12-14T14:32:41.036Z,5
2018-12-14T14:33:51.842Z,5
2018-12-14T14:35:01.422Z,5
2018-12-14T14:36:12.037Z,5
2018-12-14T14:37:21.841Z,5
2018-12-14T14:38:31.666Z,5
2018-12-14T14:39:41.454Z,5
2018-12-14T14:40:51.534Z,5
2018-12-14T14:42:01.589Z,5
2018-12-14T14:43:11.405Z,5
2018-12-14T14:44:21.541Z,5
2018-12-14T14:45:31.638Z,0
2018-12-14T14:46:41.715Z,0
2018-12-14T14:47:51.526Z,0
2018-12-14T14:49:01.354Z,0
2018-12-14T14:50:11.169Z,0
2018-12-14T14:51:21.237Z,0
2018-12-14T14:52:31.320Z,0
2018-12-14T14:53:41.383Z,0
2018-12-14T14:54:51.459Z,0
2018-12-14T14:56:01.535Z,0
2018-12-14T14:57:11.599Z,0
2018-12-14T14:58:21.663Z,0
2018-12-14T14:59:31.506Z,0
2018-12-14T15:00:41.106Z,0
2018-12-14T15:01:51.194Z,0
2018-12-14T15:03:01.271Z,0
2018-12-14T15:04:11.334Z,0
2018-12-14T15:05:21.687Z,0
2018-12-14T15:06:31.775Z,0
2018-12-14T15:07:41.861Z,0
2018-12-14T15:08:51.924Z,0
2018-12-14T15:10:01.992Z,0
2018-12-14T15:11:11.836Z,0
2018-12-14T15:12:21.908Z,0
2018-12-14T15:13:32.219Z,0
2018-12-14T15:14:42.341Z,0
2018-12-14T15:15:52.162Z,0
2018-12-14T15:17:01.972Z,0
2018-12-14T15:18:12.033Z,0
2018-12-14T15:19:21.922Z,0
2018-12-14T15:20:31.994Z,0
2018-12-14T15:21:42.073Z,0
2018-12-14T15:22:52.143Z,0
2018-12-14T15:24:01.955Z,0
2018-12-14T15:25:12.081Z,0
2018-12-14T15:26:21.882Z,0
2018-12-14T15:27:31.949Z,0
2018-12-14T15:28:42.052Z,0
2018-12-14T15:29:51.893Z,0
2018-12-14T15:31:02.037Z,0
2018-12-14T15:32:12.100Z,0
2018-12-14T15:33:21.970Z,0
2018-12-14T15:34:32.515Z,0
2018-12-14T15:35:42.632Z,0
2018-12-14T15:36:53.132Z,0
2018-12-14T15:38:05.200Z,0
2018-12-14T15:39:15.638Z,0
2018-12-14T15:40:25.919Z,0
2018-12-14T15:41:35.752Z,0
2018-12-14T15:42:47.145Z,0
2018-12-14T15:43:57.654Z,0
2018-12-14T15:45:15.520Z,0
2018-12-14T15:46:25.847Z,0
2018-12-14T15:47:36.265Z,0
2018-12-14T15:48:46.124Z,0
2018-12-14T15:49:56.971Z,0
2018-12-14T15:51:07.688Z,0
2018-12-14T15:52:18.227Z,0
2018-12-14T15:53:28.677Z,0
2018-12-14T15:54:39.576Z,0
2018-12-14T15:55:49.629Z,0
2018-12-14T15:57:00.748Z,0
2018-12-14T15:58:10.849Z,0
2018-12-14T15:59:21.099Z,0
2018-12-14T16:00:31.494Z,0
2018-12-14T16:01:41.765Z,0
2018-12-14T16:02:52.714Z,0
2018-12-14T16:04:03.822Z,0
2018-12-14T16:05:13.854Z,0
2018-12-14T16:06:24.200Z,0
2018-12-14T16:07:34.581Z,0
2018-12-14T16:08:44.912Z,0
2018-12-14T16:09:55.616Z,0
2018-12-14T16:11:06.378Z,0
2018-12-14T16:12:17.083Z,0
2018-12-14T16:13:27.281Z,0
2018-12-14T16:14:44.183Z,0
2018-12-14T16:15:55.422Z,0
2018-12-14T16:17:08.747Z,0
2018-12-14T16:18:18.995Z,0
2018-12-14T16:19:29.768Z,0
2018-12-14T16:20:40.133Z,0
2018-12-14T16:21:50.553Z,0
2018-12-14T16:23:01.130Z,0
2018-12-14T16:24:11.225Z,0
2018-12-14T16:25:21.583Z,0
2018-12-14T16:26:31.717Z,0
2018-12-14T16:27:42.543Z,0
2018-12-14T16:28:53.104Z,0
2018-12-14T16:30:03.240Z,0
2018-12-14T16:31:13.763Z,0
2018-12-14T16:32:24.113Z,0
2018-12-14T16:33:34.985Z,0
2018-12-14T16:34:45.061Z,0
2018-12-14T16:35:55.218Z,0
2018-12-14T16:37:05.326Z,0
2018-12-14T16:38:15.408Z,0
2018-12-14T16:39:25.493Z,0
2018-12-14T16:40:35.579Z,0
2018-12-14T16:41:45.442Z,0
2018-12-14T16:42:55.546Z,0
2018-12-14T16:44:05.620Z,0
2018-12-14T16:45:15.715Z,0
2018-12-14T16:46:25.799Z,0
2018-12-14T16:47:35.851Z,0
2018-12-14T16:48:45.730Z,0
2018-12-14T16:49:55.795Z,0
2018-12-14T16:51:05.698Z,0
2018-12-14T16:52:15.784Z,0
2018-12-14T16:53:26.111Z,0
2018-12-14T16:54:36.181Z,0
2018-12-14T16:55:46.027Z,0
2018-12-14T16:56:56.104Z,0
2018-12-14T16:58:08.203Z,0
2018-12-14T16:59:18.277Z,0
2018-12-14T17:00:28.360Z,0
2018-12-14T17:01:38.447Z,0
2018-12-14T17:02:48.509Z,0
2018-12-14T17:03:58.595Z,0
2018-12-14T17:05:09.732Z,0
2018-12-14T17:06:19.825Z,0
2018-12-14T17:07:29.711Z,0
2018-12-14T17:08:39.839Z,0
2018-12-14T17:09:50.005Z,0
2018-12-14T17:11:01.156Z,0
2018-12-14T17:12:11.336Z,0
2018-12-14T17:13:21.391Z,0
2018-12-14T17:14:31.465Z,0
2018-12-14T17:15:43.114Z,0
2018-12-14T17:16:53.233Z,0
2018-12-14T17:18:03.067Z,0
2018-12-14T17:19:13.170Z,0
2018-12-14T17:20:23.350Z,0
2018-12-14T17:21:33.184Z,0
2018-12-14T17:22:43.306Z,0
2018-12-14T17:23:53.434Z,0
2018-12-14T17:25:03.503Z,0
2018-12-14T17:26:13.331Z,0
2018-12-14T17:27:23.555Z,0
2018-12-14T17:28:33.644Z,0
2018-12-14T17:29:43.704Z,0
2018-12-14T17:30:53.838Z,0
2018-12-14T17:32:05.218Z,0
2018-12-14T17:33:15.105Z,0
2018-12-14T17:34:24.933Z,0
2018-12-14T17:35:34.502Z,0
2018-12-14T17:36:45.536Z,0
2018-12-14T17:37:55.469Z,0
2018-12-14T17:39:07.753Z,0
2018-12-14T17:40:17.845Z,0
2018-12-14T17:41:27.919Z,0
2018-12-14T17:42:37.997Z,0